sensor_id;sensor_type;location;lat;lon;timestamp;P1;durP1;ratioP1;P2;durP2;ratioP2
54167;SDS011;40072;50.958;3.592;2022-09-17T00:00:11;13.45;;;2.15;;
54167;SDS011;40072;50.958;3.592;2022-09-17T00:02:36;18.10;;;2.30;;
54167;SDS011;40072;50.958;3.592;2022-09-17T00:05:02;15.73;;;1.88;;
54167;SDS011;40072;50.958;3.592;2022-09-17T00:07:28;13.40;;;2.13;;
54167;SDS011;40072;50.958;3.592;2022-09-17T00:09:54;16.30;;;1.77;;
54167;SDS011;40072;50.958;3.592;2022-09-17T00:12:19;14.20;;;1.88;;
54167;SDS011;40072;50.958;3.592;2022-09-17T00:14:45;13.23;;;1.88;;
54167;SDS011;40072;50.958;3.592;2022-09-17T00:17:11;12.68;;;1.70;;
54167;SDS011;40072;50.958;3.592;2022-09-17T00:19:36;19.35;;;2.03;;
54167;SDS011;40072;50.958;3.592;2022-09-17T00:22:03;10.27;;;1.58;;
54167;SDS011;40072;50.958;3.592;2022-09-17T00:24:29;14.05;;;2.00;;
54167;SDS011;40072;50.958;3.592;2022-09-17T00:26:54;14.00;;;2.17;;
54167;SDS011;40072;50.958;3.592;2022-09-17T00:29:20;15.90;;;2.13;;
54167;SDS011;40072;50.958;3.592;2022-09-17T00:31:46;14.93;;;2.00;;
54167;SDS011;40072;50.958;3.592;2022-09-17T00:34:11;13.48;;;2.08;;
54167;SDS011;40072;50.958;3.592;2022-09-17T00:36:37;24.50;;;2.47;;
54167;SDS011;40072;50.958;3.592;2022-09-17T00:39:04;19.42;;;2.15;;
54167;SDS011;40072;50.958;3.592;2022-09-17T00:41:31;20.73;;;3.03;;
54167;SDS011;40072;50.958;3.592;2022-09-17T00:43:59;15.73;;;2.00;;
54167;SDS011;40072;50.958;3.592;2022-09-17T00:49:01;15.77;;;2.20;;
54167;SDS011;40072;50.958;3.592;2022-09-17T00:51:33;18.27;;;2.33;;
54167;SDS011;40072;50.958;3.592;2022-09-17T00:54:05;20.38;;;2.22;;
54167;SDS011;40072;50.958;3.592;2022-09-17T00:56:36;13.85;;;2.00;;
54167;SDS011;40072;50.958;3.592;2022-09-17T00:59:04;18.58;;;2.28;;
54167;SDS011;40072;50.958;3.592;2022-09-17T01:01:30;19.13;;;2.47;;
54167;SDS011;40072;50.958;3.592;2022-09-17T01:03:56;23.50;;;2.60;;
54167;SDS011;40072;50.958;3.592;2022-09-17T01:09:20;18.17;;;3.72;;
54167;SDS011;40072;50.958;3.592;2022-09-17T01:28:25;28.42;;;3.80;;
54167;SDS011;40072;50.958;3.592;2022-09-17T01:31:28;26.58;;;3.30;;
54167;SDS011;40072;50.958;3.592;2022-09-17T01:42:23;35.53;;;3.92;;
54167;SDS011;40072;50.958;3.592;2022-09-17T01:50:51;28.00;;;3.40;;
54167;SDS011;40072;50.958;3.592;2022-09-17T01:53:23;24.00;;;3.25;;
54167;SDS011;40072;50.958;3.592;2022-09-17T01:56:01;24.70;;;3.40;;
54167;SDS011;40072;50.958;3.592;2022-09-17T01:58:28;22.75;;;3.20;;
54167;SDS011;40072;50.958;3.592;2022-09-17T02:01:00;28.80;;;3.95;;
54167;SDS011;40072;50.958;3.592;2022-09-17T02:06:05;26.88;;;3.53;;
54167;SDS011;40072;50.958;3.592;2022-09-17T02:11:20;29.48;;;4.28;;
54167;SDS011;40072;50.958;3.592;2022-09-17T02:13:59;25.15;;;2.83;;
54167;SDS011;40072;50.958;3.592;2022-09-17T02:16:30;23.17;;;2.90;;
54167;SDS011;40072;50.958;3.592;2022-09-17T02:19:12;31.17;;;3.85;;
54167;SDS011;40072;50.958;3.592;2022-09-17T02:30:12;28.20;;;3.67;;
54167;SDS011;40072;50.958;3.592;2022-09-17T02:32:38;29.55;;;3.15;;
54167;SDS011;40072;50.958;3.592;2022-09-17T02:35:04;26.45;;;3.22;;
54167;SDS011;40072;50.958;3.592;2022-09-17T02:37:31;23.55;;;3.83;;
54167;SDS011;40072;50.958;3.592;2022-09-17T02:39:57;15.93;;;2.92;;
54167;SDS011;40072;50.958;3.592;2022-09-17T02:48:16;24.73;;;3.65;;
54167;SDS011;40072;50.958;3.592;2022-09-17T02:59:18;30.48;;;3.47;;
54167;SDS011;40072;50.958;3.592;2022-09-17T03:01:57;22.00;;;4.10;;
54167;SDS011;40072;50.958;3.592;2022-09-17T03:04:27;25.55;;;4.00;;
54167;SDS011;40072;50.958;3.592;2022-09-17T03:06:54;33.50;;;4.07;;
54167;SDS011;40072;50.958;3.592;2022-09-17T03:09:23;26.58;;;4.25;;
54167;SDS011;40072;50.958;3.592;2022-09-17T03:11:50;25.45;;;4.70;;
54167;SDS011;40072;50.958;3.592;2022-09-17T03:14:15;24.65;;;3.70;;
54167;SDS011;40072;50.958;3.592;2022-09-17T03:16:44;31.45;;;4.78;;
54167;SDS011;40072;50.958;3.592;2022-09-17T03:19:10;28.20;;;4.35;;
54167;SDS011;40072;50.958;3.592;2022-09-17T03:21:36;22.35;;;3.55;;
54167;SDS011;40072;50.958;3.592;2022-09-17T03:24:01;23.52;;;4.55;;
54167;SDS011;40072;50.958;3.592;2022-09-17T03:26:27;28.65;;;3.83;;
54167;SDS011;40072;50.958;3.592;2022-09-17T03:28:53;37.50;;;4.72;;
54167;SDS011;40072;50.958;3.592;2022-09-17T03:31:18;24.15;;;4.18;;
54167;SDS011;40072;50.958;3.592;2022-09-17T03:33:44;19.20;;;3.33;;
54167;SDS011;40072;50.958;3.592;2022-09-17T03:36:10;25.65;;;3.20;;
54167;SDS011;40072;50.958;3.592;2022-09-17T03:38:35;32.28;;;3.45;;
54167;SDS011;40072;50.958;3.592;2022-09-17T03:41:04;24.65;;;4.28;;
54167;SDS011;40072;50.958;3.592;2022-09-17T03:43:34;27.25;;;3.22;;
54167;SDS011;40072;50.958;3.592;2022-09-17T03:45:59;23.05;;;3.40;;
54167;SDS011;40072;50.958;3.592;2022-09-17T03:48:25;20.80;;;3.50;;
54167;SDS011;40072;50.958;3.592;2022-09-17T03:50:51;31.27;;;3.58;;
54167;SDS011;40072;50.958;3.592;2022-09-17T03:53:17;19.23;;;3.65;;
54167;SDS011;40072;50.958;3.592;2022-09-17T03:55:42;26.65;;;3.08;;
54167;SDS011;40072;50.958;3.592;2022-09-17T03:58:08;19.92;;;3.05;;
54167;SDS011;40072;50.958;3.592;2022-09-17T04:00:34;20.88;;;3.08;;
54167;SDS011;40072;50.958;3.592;2022-09-17T04:03:02;24.23;;;3.33;;
54167;SDS011;40072;50.958;3.592;2022-09-17T04:05:28;18.92;;;2.67;;
54167;SDS011;40072;50.958;3.592;2022-09-17T04:07:54;25.48;;;2.88;;
54167;SDS011;40072;50.958;3.592;2022-09-17T04:10:20;22.15;;;2.45;;
54167;SDS011;40072;50.958;3.592;2022-09-17T04:12:45;24.45;;;3.35;;
54167;SDS011;40072;50.958;3.592;2022-09-17T04:15:11;16.38;;;2.28;;
54167;SDS011;40072;50.958;3.592;2022-09-17T04:17:36;21.55;;;3.10;;
54167;SDS011;40072;50.958;3.592;2022-09-17T04:20:02;22.73;;;3.35;;
54167;SDS011;40072;50.958;3.592;2022-09-17T04:22:30;22.05;;;2.95;;
54167;SDS011;40072;50.958;3.592;2022-09-17T04:24:55;22.02;;;2.78;;
54167;SDS011;40072;50.958;3.592;2022-09-17T04:27:21;22.98;;;2.97;;
54167;SDS011;40072;50.958;3.592;2022-09-17T04:29:48;22.85;;;2.90;;
54167;SDS011;40072;50.958;3.592;2022-09-17T04:32:13;17.48;;;2.15;;
54167;SDS011;40072;50.958;3.592;2022-09-17T04:34:39;20.30;;;2.55;;
54167;SDS011;40072;50.958;3.592;2022-09-17T04:37:05;17.20;;;2.60;;
54167;SDS011;40072;50.958;3.592;2022-09-17T04:39:31;13.95;;;2.17;;
54167;SDS011;40072;50.958;3.592;2022-09-17T04:41:56;19.38;;;2.70;;
54167;SDS011;40072;50.958;3.592;2022-09-17T04:44:22;18.40;;;3.25;;
54167;SDS011;40072;50.958;3.592;2022-09-17T04:46:47;16.52;;;2.05;;
54167;SDS011;40072;50.958;3.592;2022-09-17T04:49:13;18.60;;;2.13;;
54167;SDS011;40072;50.958;3.592;2022-09-17T04:51:39;8.98;;;1.70;;
54167;SDS011;40072;50.958;3.592;2022-09-17T04:54:05;16.45;;;2.08;;
54167;SDS011;40072;50.958;3.592;2022-09-17T04:56:30;23.15;;;2.45;;
54167;SDS011;40072;50.958;3.592;2022-09-17T04:58:56;21.38;;;2.15;;
54167;SDS011;40072;50.958;3.592;2022-09-17T05:01:22;21.00;;;2.40;;
54167;SDS011;40072;50.958;3.592;2022-09-17T05:03:47;16.33;;;2.67;;
54167;SDS011;40072;50.958;3.592;2022-09-17T05:06:14;18.38;;;2.20;;
54167;SDS011;40072;50.958;3.592;2022-09-17T05:08:39;17.23;;;2.35;;
54167;SDS011;40072;50.958;3.592;2022-09-17T05:11:05;19.05;;;2.47;;
54167;SDS011;40072;50.958;3.592;2022-09-17T05:13:31;17.45;;;2.47;;
54167;SDS011;40072;50.958;3.592;2022-09-17T05:15:56;14.82;;;1.90;;
54167;SDS011;40072;50.958;3.592;2022-09-17T05:18:22;16.73;;;2.20;;
54167;SDS011;40072;50.958;3.592;2022-09-17T05:20:48;14.48;;;1.60;;
54167;SDS011;40072;50.958;3.592;2022-09-17T05:23:13;17.85;;;2.75;;
54167;SDS011;40072;50.958;3.592;2022-09-17T05:25:39;17.17;;;2.10;;
54167;SDS011;40072;50.958;3.592;2022-09-17T05:28:05;20.38;;;2.05;;
54167;SDS011;40072;50.958;3.592;2022-09-17T05:30:31;15.57;;;2.10;;
54167;SDS011;40072;50.958;3.592;2022-09-17T05:32:57;15.65;;;2.20;;
54167;SDS011;40072;50.958;3.592;2022-09-17T05:35:24;8.73;;;1.95;;
54167;SDS011;40072;50.958;3.592;2022-09-17T05:37:49;23.63;;;2.45;;
54167;SDS011;40072;50.958;3.592;2022-09-17T05:40:15;12.32;;;2.00;;
54167;SDS011;40072;50.958;3.592;2022-09-17T05:42:41;15.88;;;2.00;;
54167;SDS011;40072;50.958;3.592;2022-09-17T05:45:06;14.13;;;2.25;;
54167;SDS011;40072;50.958;3.592;2022-09-17T05:47:33;15.05;;;2.10;;
54167;SDS011;40072;50.958;3.592;2022-09-17T05:49:59;10.10;;;1.75;;
54167;SDS011;40072;50.958;3.592;2022-09-17T05:52:26;10.52;;;1.50;;
54167;SDS011;40072;50.958;3.592;2022-09-17T05:54:52;12.05;;;1.63;;
54167;SDS011;40072;50.958;3.592;2022-09-17T05:57:17;12.88;;;2.20;;
54167;SDS011;40072;50.958;3.592;2022-09-17T05:59:44;10.75;;;1.73;;
54167;SDS011;40072;50.958;3.592;2022-09-17T06:02:13;9.35;;;1.60;;
54167;SDS011;40072;50.958;3.592;2022-09-17T06:04:39;17.00;;;2.20;;
54167;SDS011;40072;50.958;3.592;2022-09-17T06:07:05;9.98;;;1.60;;
54167;SDS011;40072;50.958;3.592;2022-09-17T06:09:34;15.80;;;2.20;;
54167;SDS011;40072;50.958;3.592;2022-09-17T06:12:01;14.05;;;2.17;;
54167;SDS011;40072;50.958;3.592;2022-09-17T06:14:28;18.15;;;2.20;;
54167;SDS011;40072;50.958;3.592;2022-09-17T06:16:55;16.33;;;2.30;;
54167;SDS011;40072;50.958;3.592;2022-09-17T06:19:21;16.38;;;2.45;;
54167;SDS011;40072;50.958;3.592;2022-09-17T06:21:47;16.92;;;2.03;;
54167;SDS011;40072;50.958;3.592;2022-09-17T06:24:14;9.73;;;1.90;;
54167;SDS011;40072;50.958;3.592;2022-09-17T06:26:40;16.15;;;1.83;;
54167;SDS011;40072;50.958;3.592;2022-09-17T06:29:06;12.98;;;1.80;;
54167;SDS011;40072;50.958;3.592;2022-09-17T06:31:31;9.25;;;2.13;;
54167;SDS011;40072;50.958;3.592;2022-09-17T06:33:57;13.35;;;1.80;;
54167;SDS011;40072;50.958;3.592;2022-09-17T06:36:23;9.18;;;1.25;;
54167;SDS011;40072;50.958;3.592;2022-09-17T06:38:48;19.02;;;2.45;;
54167;SDS011;40072;50.958;3.592;2022-09-17T06:41:14;14.88;;;2.25;;
54167;SDS011;40072;50.958;3.592;2022-09-17T06:43:41;13.18;;;2.15;;
54167;SDS011;40072;50.958;3.592;2022-09-17T06:46:07;12.75;;;2.28;;
54167;SDS011;40072;50.958;3.592;2022-09-17T06:48:34;12.35;;;1.70;;
54167;SDS011;40072;50.958;3.592;2022-09-17T06:51:02;11.45;;;2.30;;
54167;SDS011;40072;50.958;3.592;2022-09-17T06:53:29;9.48;;;1.70;;
54167;SDS011;40072;50.958;3.592;2022-09-17T06:55:56;18.83;;;3.40;;
54167;SDS011;40072;50.958;3.592;2022-09-17T06:58:23;12.63;;;2.00;;
54167;SDS011;40072;50.958;3.592;2022-09-17T07:00:50;20.10;;;2.88;;
54167;SDS011;40072;50.958;3.592;2022-09-17T07:03:16;10.02;;;3.03;;
54167;SDS011;40072;50.958;3.592;2022-09-17T07:05:42;18.13;;;2.38;;
54167;SDS011;40072;50.958;3.592;2022-09-17T07:08:09;12.65;;;2.20;;
54167;SDS011;40072;50.958;3.592;2022-09-17T07:10:35;14.43;;;2.33;;
54167;SDS011;40072;50.958;3.592;2022-09-17T07:13:01;13.05;;;1.85;;
54167;SDS011;40072;50.958;3.592;2022-09-17T07:15:28;14.98;;;2.03;;
54167;SDS011;40072;50.958;3.592;2022-09-17T07:17:53;14.45;;;1.92;;
54167;SDS011;40072;50.958;3.592;2022-09-17T07:20:19;11.13;;;1.98;;
54167;SDS011;40072;50.958;3.592;2022-09-17T07:22:45;11.73;;;1.67;;
54167;SDS011;40072;50.958;3.592;2022-09-17T07:25:19;11.02;;;1.60;;
54167;SDS011;40072;50.958;3.592;2022-09-17T07:27:44;5.70;;;1.20;;
54167;SDS011;40072;50.958;3.592;2022-09-17T07:30:10;11.27;;;1.92;;
54167;SDS011;40072;50.958;3.592;2022-09-17T07:32:37;10.23;;;1.55;;
54167;SDS011;40072;50.958;3.592;2022-09-17T07:35:02;12.95;;;1.38;;
54167;SDS011;40072;50.958;3.592;2022-09-17T07:37:28;6.95;;;1.13;;
54167;SDS011;40072;50.958;3.592;2022-09-17T07:39:54;11.05;;;1.38;;
54167;SDS011;40072;50.958;3.592;2022-09-17T07:42:19;7.32;;;1.38;;
54167;SDS011;40072;50.958;3.592;2022-09-17T07:44:45;8.48;;;1.58;;
54167;SDS011;40072;50.958;3.592;2022-09-17T07:47:11;8.02;;;1.00;;
54167;SDS011;40072;50.958;3.592;2022-09-17T07:49:38;9.82;;;1.40;;
54167;SDS011;40072;50.958;3.592;2022-09-17T07:52:03;8.75;;;1.40;;
54167;SDS011;40072;50.958;3.592;2022-09-17T07:54:31;9.10;;;1.52;;
54167;SDS011;40072;50.958;3.592;2022-09-17T07:57:02;12.43;;;1.85;;
54167;SDS011;40072;50.958;3.592;2022-09-17T07:59:28;12.32;;;1.70;;
54167;SDS011;40072;50.958;3.592;2022-09-17T08:01:54;16.83;;;2.15;;
54167;SDS011;40072;50.958;3.592;2022-09-17T08:04:19;9.98;;;1.58;;
54167;SDS011;40072;50.958;3.592;2022-09-17T08:06:45;7.85;;;1.90;;
54167;SDS011;40072;50.958;3.592;2022-09-17T08:09:14;17.30;;;1.80;;
54167;SDS011;40072;50.958;3.592;2022-09-17T08:11:40;9.55;;;2.00;;
54167;SDS011;40072;50.958;3.592;2022-09-17T08:14:09;11.75;;;2.05;;
54167;SDS011;40072;50.958;3.592;2022-09-17T08:16:35;16.27;;;2.20;;
54167;SDS011;40072;50.958;3.592;2022-09-17T08:19:01;11.02;;;1.80;;
54167;SDS011;40072;50.958;3.592;2022-09-17T08:21:27;19.67;;;2.78;;
54167;SDS011;40072;50.958;3.592;2022-09-17T08:23:52;12.02;;;2.00;;
54167;SDS011;40072;50.958;3.592;2022-09-17T08:26:21;13.73;;;1.70;;
54167;SDS011;40072;50.958;3.592;2022-09-17T08:28:51;16.40;;;2.33;;
54167;SDS011;40072;50.958;3.592;2022-09-17T08:31:21;17.98;;;2.80;;
54167;SDS011;40072;50.958;3.592;2022-09-17T08:33:48;12.38;;;2.42;;
54167;SDS011;40072;50.958;3.592;2022-09-17T08:36:15;14.40;;;2.05;;
54167;SDS011;40072;50.958;3.592;2022-09-17T08:38:42;15.45;;;2.00;;
54167;SDS011;40072;50.958;3.592;2022-09-17T08:44:20;9.90;;;1.50;;
54167;SDS011;40072;50.958;3.592;2022-09-17T08:46:23;12.55;;;1.52;;
54167;SDS011;40072;50.958;3.592;2022-09-17T08:48:55;10.60;;;1.70;;
54167;SDS011;40072;50.958;3.592;2022-09-17T08:57:19;12.20;;;1.50;;
54167;SDS011;40072;50.958;3.592;2022-09-17T09:00:13;6.35;;;1.23;;
54167;SDS011;40072;50.958;3.592;2022-09-17T09:05:28;8.65;;;1.63;;
54167;SDS011;40072;50.958;3.592;2022-09-17T09:08:02;13.93;;;2.15;;
54167;SDS011;40072;50.958;3.592;2022-09-17T09:10:51;7.15;;;2.05;;
54167;SDS011;40072;50.958;3.592;2022-09-17T09:13:20;15.10;;;2.10;;
54167;SDS011;40072;50.958;3.592;2022-09-17T09:15:53;10.98;;;1.60;;
54167;SDS011;40072;50.958;3.592;2022-09-17T09:18:25;10.10;;;2.17;;
54167;SDS011;40072;50.958;3.592;2022-09-17T09:21:37;18.00;;;2.95;;
54167;SDS011;40072;50.958;3.592;2022-09-17T09:24:15;12.50;;;2.47;;
54167;SDS011;40072;50.958;3.592;2022-09-17T09:27:00;8.35;;;1.70;;
54167;SDS011;40072;50.958;3.592;2022-09-17T09:29:40;8.75;;;2.10;;
54167;SDS011;40072;50.958;3.592;2022-09-17T09:32:13;15.05;;;2.03;;
54167;SDS011;40072;50.958;3.592;2022-09-17T09:34:51;11.00;;;2.33;;
54167;SDS011;40072;50.958;3.592;2022-09-17T09:37:23;12.50;;;2.05;;
54167;SDS011;40072;50.958;3.592;2022-09-17T09:39:52;20.10;;;2.17;;
54167;SDS011;40072;50.958;3.592;2022-09-17T09:44:58;8.38;;;2.15;;
54167;SDS011;40072;50.958;3.592;2022-09-17T09:53:09;8.88;;;1.35;;
54167;SDS011;40072;50.958;3.592;2022-09-17T09:58:36;13.38;;;2.08;;
54167;SDS011;40072;50.958;3.592;2022-09-17T10:01:13;8.57;;;1.65;;
54167;SDS011;40072;50.958;3.592;2022-09-17T10:03:41;10.68;;;1.65;;
54167;SDS011;40072;50.958;3.592;2022-09-17T10:06:10;5.32;;;1.65;;
54167;SDS011;40072;50.958;3.592;2022-09-17T10:08:38;11.15;;;1.33;;
54167;SDS011;40072;50.958;3.592;2022-09-17T10:13:37;8.10;;;1.75;;
54167;SDS011;40072;50.958;3.592;2022-09-17T10:16:17;13.38;;;2.35;;
54167;SDS011;40072;50.958;3.592;2022-09-17T10:18:43;12.18;;;1.90;;
54167;SDS011;40072;50.958;3.592;2022-09-17T10:21:21;10.90;;;1.75;;
54167;SDS011;40072;50.958;3.592;2022-09-17T10:23:55;5.70;;;1.30;;
54167;SDS011;40072;50.958;3.592;2022-09-17T10:26:22;10.57;;;2.08;;
54167;SDS011;40072;50.958;3.592;2022-09-17T10:28:51;8.00;;;1.35;;
54167;SDS011;40072;50.958;3.592;2022-09-17T10:31:19;10.95;;;1.90;;
54167;SDS011;40072;50.958;3.592;2022-09-17T10:33:55;9.98;;;1.83;;
54167;SDS011;40072;50.958;3.592;2022-09-17T10:36:34;12.80;;;2.10;;
54167;SDS011;40072;50.958;3.592;2022-09-17T10:39:49;10.25;;;1.67;;
54167;SDS011;40072;50.958;3.592;2022-09-17T10:42:04;11.55;;;1.83;;
54167;SDS011;40072;50.958;3.592;2022-09-17T10:47:20;8.18;;;1.70;;
54167;SDS011;40072;50.958;3.592;2022-09-17T10:49:47;7.13;;;1.52;;
54167;SDS011;40072;50.958;3.592;2022-09-17T10:52:18;7.43;;;1.35;;
54167;SDS011;40072;50.958;3.592;2022-09-17T11:03:36;15.70;;;1.65;;
54167;SDS011;40072;50.958;3.592;2022-09-17T11:09:13;8.45;;;2.10;;
54167;SDS011;40072;50.958;3.592;2022-09-17T11:28:04;9.77;;;2.10;;
54167;SDS011;40072;50.958;3.592;2022-09-17T11:36:45;12.10;;;2.17;;
54167;SDS011;40072;50.958;3.592;2022-09-17T11:39:35;11.13;;;2.25;;
54167;SDS011;40072;50.958;3.592;2022-09-17T11:42:06;15.60;;;2.65;;
54167;SDS011;40072;50.958;3.592;2022-09-17T11:44:40;8.50;;;1.33;;
54167;SDS011;40072;50.958;3.592;2022-09-17T11:47:25;5.15;;;1.42;;
54167;SDS011;40072;50.958;3.592;2022-09-17T11:52:44;14.65;;;1.90;;
54167;SDS011;40072;50.958;3.592;2022-09-17T11:58:08;17.67;;;2.08;;
54167;SDS011;40072;50.958;3.592;2022-09-17T12:00:41;10.85;;;1.83;;
54167;SDS011;40072;50.958;3.592;2022-09-17T12:03:29;13.80;;;2.17;;
54167;SDS011;40072;50.958;3.592;2022-09-17T12:06:13;11.38;;;2.45;;
54167;SDS011;40072;50.958;3.592;2022-09-17T12:14:22;14.75;;;2.63;;
54167;SDS011;40072;50.958;3.592;2022-09-17T12:16:54;9.57;;;2.40;;
54167;SDS011;40072;50.958;3.592;2022-09-17T12:19:26;10.30;;;2.00;;
54167;SDS011;40072;50.958;3.592;2022-09-17T12:24:29;12.57;;;1.95;;
54167;SDS011;40072;50.958;3.592;2022-09-17T12:32:43;13.50;;;2.10;;
54167;SDS011;40072;50.958;3.592;2022-09-17T12:35:21;9.85;;;2.03;;
54167;SDS011;40072;50.958;3.592;2022-09-17T12:38:12;12.75;;;2.00;;
54167;SDS011;40072;50.958;3.592;2022-09-17T12:41:25;8.43;;;1.80;;
54167;SDS011;40072;50.958;3.592;2022-09-17T12:55:45;8.65;;;1.92;;
54167;SDS011;40072;50.958;3.592;2022-09-17T12:58:24;10.57;;;2.17;;
54167;SDS011;40072;50.958;3.592;2022-09-17T13:01:02;9.43;;;1.55;;
54167;SDS011;40072;50.958;3.592;2022-09-17T13:03:48;11.05;;;1.95;;
54167;SDS011;40072;50.958;3.592;2022-09-17T13:07:25;8.32;;;1.80;;
54167;SDS011;40072;50.958;3.592;2022-09-17T13:12:13;7.40;;;1.38;;
54167;SDS011;40072;50.958;3.592;2022-09-17T13:17:18;3.83;;;1.10;;
54167;SDS011;40072;50.958;3.592;2022-09-17T13:20:14;4.93;;;1.10;;
54167;SDS011;40072;50.958;3.592;2022-09-17T13:22:50;7.68;;;1.25;;
54167;SDS011;40072;50.958;3.592;2022-09-17T13:25:18;4.90;;;1.08;;
54167;SDS011;40072;50.958;3.592;2022-09-17T13:27:45;6.18;;;1.10;;
54167;SDS011;40072;50.958;3.592;2022-09-17T13:30:12;6.80;;;2.00;;
54167;SDS011;40072;50.958;3.592;2022-09-17T13:37:34;5.50;;;1.48;;
54167;SDS011;40072;50.958;3.592;2022-09-17T13:42:47;8.52;;;1.75;;
54167;SDS011;40072;50.958;3.592;2022-09-17T13:45:21;8.60;;;1.38;;
54167;SDS011;40072;50.958;3.592;2022-09-17T13:47:52;4.20;;;1.20;;
54167;SDS011;40072;50.958;3.592;2022-09-17T14:05:55;6.50;;;1.30;;
54167;SDS011;40072;50.958;3.592;2022-09-17T14:27:13;5.25;;;1.20;;
54167;SDS011;40072;50.958;3.592;2022-09-17T14:35:33;8.60;;;1.83;;
54167;SDS011;40072;50.958;3.592;2022-09-17T14:43:47;9.07;;;2.05;;
54167;SDS011;40072;50.958;3.592;2022-09-17T14:48:54;5.18;;;1.33;;
54167;SDS011;40072;50.958;3.592;2022-09-17T14:51:40;6.70;;;1.30;;
54167;SDS011;40072;50.958;3.592;2022-09-17T14:56:48;7.18;;;1.70;;
54167;SDS011;40072;50.958;3.592;2022-09-17T14:59:40;9.73;;;1.67;;
54167;SDS011;40072;50.958;3.592;2022-09-17T15:04:54;8.52;;;1.95;;
54167;SDS011;40072;50.958;3.592;2022-09-17T15:07:21;6.78;;;1.80;;
54167;SDS011;40072;50.958;3.592;2022-09-17T15:09:47;7.13;;;1.20;;
54167;SDS011;40072;50.958;3.592;2022-09-17T15:12:16;11.15;;;2.47;;
54167;SDS011;40072;50.958;3.592;2022-09-17T15:14:43;8.85;;;1.55;;
54167;SDS011;40072;50.958;3.592;2022-09-17T15:17:12;9.20;;;1.90;;
54167;SDS011;40072;50.958;3.592;2022-09-17T15:19:40;6.13;;;1.45;;
54167;SDS011;40072;50.958;3.592;2022-09-17T15:22:15;5.65;;;1.67;;
54167;SDS011;40072;50.958;3.592;2022-09-17T15:29:51;6.20;;;1.48;;
54167;SDS011;40072;50.958;3.592;2022-09-17T15:32:26;7.15;;;1.50;;
54167;SDS011;40072;50.958;3.592;2022-09-17T15:40:13;6.40;;;1.33;;
54167;SDS011;40072;50.958;3.592;2022-09-17T15:42:48;6.68;;;1.55;;
54167;SDS011;40072;50.958;3.592;2022-09-17T15:47:53;4.28;;;1.20;;
54167;SDS011;40072;50.958;3.592;2022-09-17T15:52:57;8.20;;;1.50;;
54167;SDS011;40072;50.958;3.592;2022-09-17T15:55:33;10.77;;;1.73;;
54167;SDS011;40072;50.958;3.592;2022-09-17T15:58:21;7.77;;;2.07;;
54167;SDS011;40072;50.958;3.592;2022-09-17T16:08:53;6.85;;;1.40;;
54167;SDS011;40072;50.958;3.592;2022-09-17T16:11:24;9.35;;;1.92;;
54167;SDS011;40072;50.958;3.592;2022-09-17T16:13:52;9.00;;;1.75;;
54167;SDS011;40072;50.958;3.592;2022-09-17T16:16:20;7.28;;;1.60;;
54167;SDS011;40072;50.958;3.592;2022-09-17T16:18:48;7.07;;;1.50;;
54167;SDS011;40072;50.958;3.592;2022-09-17T16:21:15;7.97;;;2.10;;
54167;SDS011;40072;50.958;3.592;2022-09-17T16:23:42;10.55;;;1.58;;
54167;SDS011;40072;50.958;3.592;2022-09-17T16:26:16;5.00;;;1.35;;
54167;SDS011;40072;50.958;3.592;2022-09-17T16:29:18;6.85;;;1.63;;
54167;SDS011;40072;50.958;3.592;2022-09-17T16:31:45;6.47;;;0.95;;
54167;SDS011;40072;50.958;3.592;2022-09-17T16:34:17;6.03;;;1.23;;
54167;SDS011;40072;50.958;3.592;2022-09-17T16:36:42;5.13;;;1.33;;
54167;SDS011;40072;50.958;3.592;2022-09-17T16:39:08;7.18;;;1.15;;
54167;SDS011;40072;50.958;3.592;2022-09-17T16:41:34;8.07;;;1.45;;
54167;SDS011;40072;50.958;3.592;2022-09-17T16:43:59;10.73;;;1.58;;
54167;SDS011;40072;50.958;3.592;2022-09-17T16:46:25;6.93;;;1.63;;
54167;SDS011;40072;50.958;3.592;2022-09-17T16:48:51;11.63;;;1.92;;
54167;SDS011;40072;50.958;3.592;2022-09-17T16:51:17;8.38;;;1.60;;
54167;SDS011;40072;50.958;3.592;2022-09-17T16:53:42;10.32;;;1.90;;
54167;SDS011;40072;50.958;3.592;2022-09-17T16:56:09;15.85;;;2.58;;
54167;SDS011;40072;50.958;3.592;2022-09-17T16:58:36;12.50;;;2.65;;
54167;SDS011;40072;50.958;3.592;2022-09-17T17:01:20;14.75;;;3.13;;
54167;SDS011;40072;50.958;3.592;2022-09-17T17:03:48;12.57;;;2.35;;
54167;SDS011;40072;50.958;3.592;2022-09-17T17:06:19;9.57;;;1.85;;
54167;SDS011;40072;50.958;3.592;2022-09-17T17:08:46;9.43;;;1.95;;
54167;SDS011;40072;50.958;3.592;2022-09-17T17:11:12;9.38;;;1.85;;
54167;SDS011;40072;50.958;3.592;2022-09-17T17:13:38;8.60;;;1.30;;
54167;SDS011;40072;50.958;3.592;2022-09-17T17:16:10;6.47;;;1.50;;
54167;SDS011;40072;50.958;3.592;2022-09-17T17:18:37;12.27;;;2.03;;
54167;SDS011;40072;50.958;3.592;2022-09-17T17:21:06;12.38;;;2.30;;
54167;SDS011;40072;50.958;3.592;2022-09-17T17:23:33;9.60;;;2.15;;
54167;SDS011;40072;50.958;3.592;2022-09-17T17:25:59;12.10;;;1.92;;
54167;SDS011;40072;50.958;3.592;2022-09-17T17:28:25;6.43;;;1.95;;
54167;SDS011;40072;50.958;3.592;2022-09-17T17:30:51;11.32;;;1.88;;
54167;SDS011;40072;50.958;3.592;2022-09-17T17:33:16;12.57;;;2.08;;
54167;SDS011;40072;50.958;3.592;2022-09-17T17:35:42;8.88;;;2.20;;
54167;SDS011;40072;50.958;3.592;2022-09-17T17:38:09;14.18;;;2.67;;
54167;SDS011;40072;50.958;3.592;2022-09-17T17:40:35;10.13;;;2.15;;
54167;SDS011;40072;50.958;3.592;2022-09-17T17:43:00;10.23;;;2.30;;
54167;SDS011;40072;50.958;3.592;2022-09-17T17:45:26;8.15;;;2.22;;
54167;SDS011;40072;50.958;3.592;2022-09-17T17:47:52;10.98;;;2.28;;
54167;SDS011;40072;50.958;3.592;2022-09-17T17:50:18;12.13;;;2.13;;
54167;SDS011;40072;50.958;3.592;2022-09-17T17:52:43;12.02;;;2.88;;
54167;SDS011;40072;50.958;3.592;2022-09-17T17:55:12;11.77;;;2.40;;
54167;SDS011;40072;50.958;3.592;2022-09-17T17:57:38;11.00;;;2.35;;
54167;SDS011;40072;50.958;3.592;2022-09-17T18:00:05;12.43;;;1.85;;
54167;SDS011;40072;50.958;3.592;2022-09-17T18:02:31;11.45;;;1.98;;
54167;SDS011;40072;50.958;3.592;2022-09-17T18:04:56;7.05;;;2.00;;
54167;SDS011;40072;50.958;3.592;2022-09-17T18:07:22;7.68;;;1.77;;
54167;SDS011;40072;50.958;3.592;2022-09-17T18:09:48;8.65;;;1.70;;
54167;SDS011;40072;50.958;3.592;2022-09-17T18:12:13;8.35;;;1.55;;
54167;SDS011;40072;50.958;3.592;2022-09-17T18:14:39;8.88;;;1.75;;
54167;SDS011;40072;50.958;3.592;2022-09-17T18:17:05;10.00;;;1.90;;
54167;SDS011;40072;50.958;3.592;2022-09-17T18:19:30;10.55;;;1.75;;
54167;SDS011;40072;50.958;3.592;2022-09-17T18:21:56;10.10;;;1.98;;
54167;SDS011;40072;50.958;3.592;2022-09-17T18:24:21;20.80;;;2.90;;
54167;SDS011;40072;50.958;3.592;2022-09-17T18:26:47;7.40;;;2.17;;
54167;SDS011;40072;50.958;3.592;2022-09-17T18:29:13;10.48;;;1.63;;
54167;SDS011;40072;50.958;3.592;2022-09-17T18:31:39;11.63;;;1.77;;
54167;SDS011;40072;50.958;3.592;2022-09-17T18:34:14;9.45;;;1.92;;
54167;SDS011;40072;50.958;3.592;2022-09-17T18:36:40;16.60;;;2.65;;
54167;SDS011;40072;50.958;3.592;2022-09-17T18:39:07;17.02;;;2.05;;
54167;SDS011;40072;50.958;3.592;2022-09-17T18:41:37;11.57;;;2.15;;
54167;SDS011;40072;50.958;3.592;2022-09-17T18:44:04;10.52;;;1.90;;
54167;SDS011;40072;50.958;3.592;2022-09-17T18:46:31;10.95;;;2.00;;
54167;SDS011;40072;50.958;3.592;2022-09-17T18:48:57;10.55;;;2.00;;
54167;SDS011;40072;50.958;3.592;2022-09-17T18:51:24;19.60;;;2.45;;
54167;SDS011;40072;50.958;3.592;2022-09-17T18:53:51;11.32;;;2.15;;
54167;SDS011;40072;50.958;3.592;2022-09-17T18:56:24;13.65;;;2.25;;
54167;SDS011;40072;50.958;3.592;2022-09-17T18:58:53;17.58;;;2.05;;